Time;durP1;ratioP1;P1;durP2;ratioP2;P2;SDS_P1;SDS_P2;PMS_P1;PMS_P2;Temp;Humidity;BMP_temperature;BMP_pressure;BME280_temperature;BME280_humidity;BME280_pressure;Samples;Min_cycle;Max_cycle;Signal;HPM_P1;HPM_P2
2021/06/29 00:00:41;;;;;;;22.62;15.00;;;;;;;16.13;77.25;98034.64;1675058;84;21735;-85
2021/06/29 00:03:09;;;;;;;22.45;14.75;;;;;;;16.11;77.55;98040.19;1692652;84;21318;-82
2021/06/29 00:05:37;;;;;;;25.35;18.02;;;;;;;16.09;78.70;98032.31;1675008;84;20980;-86
2021/06/29 00:08:05;;;;;;;26.57;16.67;;;;;;;16.12;77.60;98039.06;1692766;84;21432;-81
2021/06/29 00:10:32;;;;;;;18.20;12.55;;;;;;;16.05;77.32;98042.23;1690730;84;21032;-81
2021/06/29 00:12:58;;;;;;;15.28;11.53;;;;;;;15.91;78.82;98034.72;1692597;84;21031;-81
2021/06/29 00:15:26;;;;;;;14.38;12.78;;;;;;;15.86;78.83;98031.55;1690527;84;21397;-86
2021/06/29 00:17:52;;;;;;;17.50;12.60;;;;;;;15.70;79.70;98027.59;1693318;84;21079;-86
2021/06/29 00:20:18;;;;;;;16.85;12.73;;;;;;;15.70;79.70;98027.59;1687081;84;21288;-82
2021/06/29 00:22:44;;;;;;;18.15;14.98;;;;;;;15.57;79.86;98027.91;1690907;84;21408;-82
2021/06/29 00:25:12;;;;;;;18.73;12.93;;;;;;;15.51;80.12;98019.58;1692196;84;21199;-81
2021/06/29 00:27:39;;;;;;;15.80;12.82;;;;;;;15.48;79.58;98021.58;1692115;84;20918;-86
2021/06/29 00:30:06;;;;;;;18.20;13.35;;;;;;;15.46;79.41;98018.34;1692312;84;20984;-86
2021/06/29 00:32:32;;;;;;;14.55;11.70;;;;;;;15.52;78.73;98008.34;1692109;84;21083;-81
2021/06/29 00:34:58;;;;;;;14.90;12.55;;;;;;;15.49;79.79;98010.34;1690755;84;20920;-86
2021/06/29 00:37:24;;;;;;;19.80;12.15;;;;;;;15.47;79.21;98007.13;1687160;84;21082;-81
2021/06/29 00:39:51;;;;;;;23.02;12.50;;;;;;;15.48;79.47;98008.73;1686870;85;20966;-81
2021/06/29 00:42:17;;;;;;;17.32;12.05;;;;;;;15.50;80.13;98013.88;1685253;84;20989;-86
2021/06/29 00:44:46;;;;;;;18.12;12.80;;;;;;;15.52;79.41;98006.98;1692126;84;21016;-81
2021/06/29 00:47:12;;;;;;;14.18;11.85;;;;;;;15.57;79.98;98002.52;1691883;84;21463;-81
2021/06/29 00:49:38;;;;;;;15.98;12.35;;;;;;;15.52;79.08;97997.42;1687437;84;21151;-86
2021/06/29 00:52:10;;;;;;;14.53;12.53;;;;;;;15.49;80.02;98001.34;1682118;84;21025;-81
2021/06/29 00:54:36;;;;;;;15.98;13.60;;;;;;;15.41;81.00;98000.73;1686360;84;20940;-81
2021/06/29 00:57:03;;;;;;;18.23;13.08;;;;;;;15.37;79.87;97999.16;1686807;83;21481;-85
2021/06/29 00:59:32;;;;;;;14.53;11.97;;;;;;;15.36;79.67;98000.84;1692332;84;21007;-81
2021/06/29 01:01:58;;;;;;;15.25;10.65;;;;;;;15.30;79.96;97991.19;1686257;84;21508;-87
2021/06/29 01:04:24;;;;;;;17.27;11.10;;;;;;;15.21;80.70;97996.56;1682748;84;20941;-86
2021/06/29 01:06:50;;;;;;;13.30;11.33;;;;;;;15.10;82.63;97984.29;1686323;83;20941;-86
2021/06/29 01:09:18;;;;;;;12.53;10.60;;;;;;;15.03;82.89;97986.08;1692126;84;20999;-86
2021/06/29 01:11:45;;;;;;;15.03;10.97;;;;;;;15.01;81.32;97982.86;1692193;84;21086;-86
2021/06/29 01:14:16;;;;;;;17.85;10.70;;;;;;;14.97;81.79;97990.06;1692123;84;21566;-86
2021/06/29 01:16:45;;;;;;;14.10;11.33;;;;;;;14.93;81.60;97987.69;1691870;84;20965;-81
2021/06/29 01:19:12;;;;;;;16.77;11.68;;;;;;;14.95;81.73;97984.92;1689864;84;21457;-85
2021/06/29 01:21:41;;;;;;;13.58;11.55;;;;;;;14.97;80.88;97983.23;1681967;84;20937;-84
2021/06/29 01:24:19;;;;;;;15.13;12.43;;;;;;;14.92;80.97;97973.80;1684258;84;21024;-86
2021/06/29 01:26:59;;;;;;;17.07;11.10;;;;;;;14.88;80.89;97981.80;1686839;84;21059;-86
2021/06/29 01:29:17;;;;;;;13.90;12.00;;;;;;;14.86;80.26;97970.93;1687192;83;21376;-81
2021/06/29 01:31:43;;;;;;;15.23;12.13;;;;;;;14.73;83.26;97973.97;1690865;84;21040;-85
2021/06/29 01:34:09;;;;;;;14.78;11.80;;;;;;;14.72;82.81;97971.00;1686919;84;20868;-86
2021/06/29 01:36:36;;;;;;;13.83;11.03;;;;;;;14.68;83.51;97966.69;1685159;84;20864;-81
2021/06/29 01:39:05;;;;;;;14.45;11.33;;;;;;;14.70;81.34;97968.30;1689390;85;21145;-84
2021/06/29 01:41:31;;;;;;;13.65;11.65;;;;;;;14.66;81.12;97973.02;1689047;85;21016;-86
2021/06/29 01:44:03;;;;;;;13.08;10.38;;;;;;;14.62;82.30;97971.23;1689273;84;20917;-81
2021/06/29 01:46:29;;;;;;;16.13;11.33;;;;;;;14.63;83.43;97960.57;1689405;84;21008;-85
2021/06/29 01:48:54;;;;;;;12.73;10.82;;;;;;;14.68;82.64;97965.89;1689484;84;20968;-82
2021/06/29 01:51:20;;;;;;;14.05;11.83;;;;;;;14.71;82.69;97953.58;1689147;84;21122;-86
2021/06/29 01:53:48;;;;;;;17.42;11.55;;;;;;;14.72;81.87;97949.17;1689420;84;20959;-82
2021/06/29 01:56:14;;;;;;;13.35;11.20;;;;;;;14.64;83.02;97956.16;1689316;85;20968;-86
2021/06/29 01:58:56;;;;;;;14.45;11.70;;;;;;;14.60;82.84;97951.62;1667569;85;20952;-82
2021/06/29 02:01:22;;;;;;;12.90;10.60;;;;;;;14.54;83.04;97951.51;1689468;85;21022;-83
2021/06/29 02:03:48;;;;;;;15.28;12.00;;;;;;;14.56;81.86;97953.36;1689385;85;21107;-82
2021/06/29 02:06:14;;;;;;;15.32;11.18;;;;;;;14.59;82.45;97959.55;1689135;84;21011;-86
2021/06/29 02:08:41;;;;;;;16.27;12.60;;;;;;;14.61;82.96;97955.42;1689702;85;20920;-87
2021/06/29 02:11:07;;;;;;;21.45;12.05;;;;;;;14.63;82.54;97953.75;1689285;85;21406;-82
2021/06/29 02:13:32;;;;;;;15.35;12.65;;;;;;;14.62;82.25;97948.86;1689430;84;20988;-82
2021/06/29 02:16:00;;;;;;;15.60;12.47;;;;;;;14.57;82.88;97948.16;1689453;85;21012;-82
2021/06/29 02:18:27;;;;;;;15.23;12.90;;;;;;;14.48;83.16;97943.98;1689314;84;21353;-81
2021/06/29 02:20:53;;;;;;;15.65;11.18;;;;;;;14.45;81.66;97943.77;1689286;84;20973;-81
2021/06/29 02:23:19;;;;;;;15.80;11.55;;;;;;;14.40;82.40;97955.02;1689331;84;20920;-86
2021/06/29 02:25:45;;;;;;;12.98;10.98;;;;;;;14.37;83.29;97945.30;1689128;85;21083;-85
2021/06/29 02:28:11;;;;;;;15.48;11.10;;;;;;;14.35;83.44;97941.49;1689336;84;21019;-81
2021/06/29 02:30:38;;;;;;;11.75;9.83;;;;;;;14.32;82.78;97946.20;1689345;84;21018;-86
2021/06/29 02:33:04;;;;;;;13.65;10.80;;;;;;;14.31;82.77;97945.16;1689385;84;21432;-81
2021/06/29 02:35:33;;;;;;;11.83;10.20;;;;;;;14.24;84.17;97948.28;1689222;84;21024;-85
2021/06/29 02:37:58;;;;;;;13.10;9.45;;;;;;;14.17;84.51;97949.25;1688048;82;21314;-85
2021/06/29 02:40:24;;;;;;;13.10;9.90;;;;;;;14.21;83.26;97950.27;1686972;85;21716;-82
2021/06/29 02:42:50;;;;;;;11.97;10.20;;;;;;;14.21;84.54;97950.27;1688237;84;21032;-85
2021/06/29 02:45:21;;;;;;;17.25;10.75;;;;;;;14.23;83.85;97943.14;1687646;85;20937;-86
2021/06/29 02:47:45;;;;;;;13.90;11.75;;;;;;;14.25;83.44;97946.36;1687097;84;20972;-85
2021/06/29 02:50:11;;;;;;;14.38;11.28;;;;;;;14.26;82.83;97939.23;1686983;85;20961;-82
2021/06/29 02:52:37;;;;;;;13.35;10.60;;;;;;;14.22;82.63;97945.63;1686767;85;21346;-82
2021/06/29 02:55:09;;;;;;;17.57;13.10;;;;;;;14.19;82.18;97956.58;1687866;84;21166;-85
2021/06/29 02:57:37;;;;;;;12.63;10.93;;;;;;;14.13;82.66;97953.70;1686806;83;20953;-81
2021/06/29 03:00:07;;;;;;;16.02;11.60;;;;;;;14.09;82.92;97950.77;1687100;84;21078;-81
2021/06/29 03:02:33;;;;;;;14.45;10.43;;;;;;;14.08;84.04;97948.34;1686178;84;21044;-86
2021/06/29 03:05:00;;;;;;;11.80;10.35;;;;;;;14.15;83.11;97960.20;1688239;83;21072;-82
2021/06/29 03:07:26;;;;;;;12.50;10.55;;;;;;;14.18;83.34;97963.67;1686603;85;20980;-86
2021/06/29 03:09:52;;;;;;;17.92;11.55;;;;;;;14.24;83.62;97966.55;1687009;85;21523;-81
2021/06/29 03:12:18;;;;;;;13.32;11.43;;;;;;;14.28;83.88;97965.66;1688006;85;20988;-86
2021/06/29 03:14:44;;;;;;;12.18;9.75;;;;;;;14.34;83.71;97959.52;1688384;85;20857;-83
2021/06/29 03:17:11;;;;;;;12.45;11.15;;;;;;;14.43;83.19;97949.51;1687610;85;21110;-86
2021/06/29 03:19:39;;;;;;;14.95;10.40;;;;;;;14.52;82.42;97942.24;1687075;84;21405;-82
2021/06/29 03:22:05;;;;;;;13.13;10.70;;;;;;;14.64;82.41;97955.36;1686879;84;21437;-82
2021/06/29 03:24:32;;;;;;;13.78;12.13;;;;;;;14.65;82.37;97956.97;1688957;83;21424;-82
2021/06/29 03:26:58;;;;;;;14.35;11.28;;;;;;;14.66;82.22;97951.77;1687646;85;20918;-86
2021/06/29 03:29:24;;;;;;;15.58;12.58;;;;;;;14.70;81.67;97956.86;1687468;85;21147;-86
2021/06/29 03:31:50;;;;;;;13.95;12.55;;;;;;;14.68;83.15;97948.16;1687315;85;21020;-83
2021/06/29 03:34:16;;;;;;;12.93;11.60;;;;;;;14.80;82.45;97947.08;1687007;85;20916;-82
2021/06/29 03:36:42;;;;;;;14.53;11.57;;;;;;;14.91;81.79;97941.63;1686814;85;20976;-86
2021/06/29 03:39:09;;;;;;;14.25;11.93;;;;;;;14.97;81.81;97942.31;1682456;85;20916;-86
2021/06/29 03:41:35;;;;;;;11.83;10.28;;;;;;;15.02;81.80;97942.73;1687212;85;21529;-82
2021/06/29 03:44:01;;;;;;;13.08;10.20;;;;;;;15.12;81.28;97947.94;1689385;84;21003;-86
2021/06/29 03:46:27;;;;;;;13.28;10.88;;;;;;;15.24;82.38;97951.73;1689189;84;21010;-86
2021/06/29 03:48:54;;;;;;;12.50;11.15;;;;;;;15.43;81.60;97956.17;1689484;84;20856;-86
2021/06/29 03:51:20;;;;;;;12.13;9.43;;;;;;;15.66;81.25;97958.34;1689435;84;20948;-82
2021/06/29 03:53:46;;;;;;;16.05;10.98;;;;;;;15.81;80.88;97959.30;1689414;84;21319;-82
2021/06/29 03:56:24;;;;;;;12.18;10.40;;;;;;;15.98;80.36;97964.00;1689243;84;21006;-85
2021/06/29 03:58:54;;;;;;;13.28;10.90;;;;;;;16.17;79.83;97956.93;1689585;84;20944;-82
2021/06/29 04:01:20;;;;;;;18.27;12.50;;;;;;;16.16;79.64;97949.85;1689261;85;20932;-86
2021/06/29 04:03:46;;;;;;;12.47;11.20;;;;;;;16.16;79.44;97945.75;1689471;84;20960;-81
2021/06/29 04:06:11;;;;;;;16.93;11.28;;;;;;;16.14;79.37;97942.51;1689424;84;21070;-85
2021/06/29 04:08:38;;;;;;;13.43;10.95;;;;;;;16.15;78.98;97939.48;1689578;84;20940;-82
2021/06/29 04:11:04;;;;;;;12.80;10.53;;;;;;;16.14;79.00;97937.84;1689341;84;21227;-81
2021/06/29 04:13:30;;;;;;;14.47;10.35;;;;;;;16.16;78.99;97936.19;1689531;84;21010;-85
2021/06/29 04:15:56;;;;;;;20.02;10.90;;;;;;;16.23;79.02;97933.20;1689348;85;21340;-85
2021/06/29 04:18:22;;;;;;;16.93;10.72;;;;;;;16.41;78.97;97934.06;1689482;84;21461;-85
2021/06/29 04:20:48;;;;;;;13.95;10.50;;;;;;;16.65;78.19;97936.32;1689061;84;21055;-85
2021/06/29 04:23:14;;;;;;;13.28;11.00;;;;;;;16.73;78.52;97928.71;1689414;84;21008;-82
2021/06/29 04:25:40;;;;;;;14.30;12.37;;;;;;;16.92;78.26;97924.30;1689455;84;20955;-85
2021/06/29 04:28:06;;;;;;;11.88;10.65;;;;;;;17.11;77.97;97926.69;1689537;85;20981;-81
2021/06/29 04:30:32;;;;;;;16.52;12.13;;;;;;;17.35;77.39;97924.23;1689699;85;21000;-81
2021/06/29 04:32:58;;;;;;;17.42;11.00;;;;;;;17.59;76.88;97925.59;1689478;85;20904;-81
2021/06/29 04:35:24;;;;;;;14.43;10.58;;;;;;;17.84;76.13;97920.61;1689394;84;20872;-82
2021/06/29 04:37:50;;;;;;;11.25;9.78;;;;;;;18.00;75.66;97914.01;1692316;84;20937;-85
2021/06/29 04:40:16;;;;;;;13.60;10.58;;;;;;;18.03;74.62;97907.31;1696296;84;21087;-84
2021/06/29 04:42:43;;;;;;;13.22;9.55;;;;;;;18.14;74.71;97913.78;1694147;84;21500;-81
2021/06/29 04:45:10;;;;;;;12.05;10.78;;;;;;;18.20;74.45;97916.01;1688667;84;21091;-81
2021/06/29 04:47:43;;;;;;;14.63;11.57;;;;;;;18.55;73.95;97917.15;1686612;85;21389;-81
2021/06/29 04:50:05;;;;;;;12.20;10.47;;;;;;;18.65;73.24;97916.77;1687310;84;20977;-86
2021/06/29 04:52:34;;;;;;;13.28;11.00;;;;;;;18.59;73.58;97914.76;1686809;84;21015;-86
2021/06/29 04:55:00;;;;;;;;;;;;;;;18.64;73.61;97906.11;1689372;84;21169;-81
2021/06/29 04:57:26;;;;;;;14.00;10.98;;;;;;;18.69;73.13;97906.72;1653144;85;20266;-85
2021/06/29 04:59:52;;;;;;;18.73;11.03;;;;;;;18.71;72.88;97908.55;1687009;85;20849;-85
2021/06/29 05:02:18;;;;;;;13.98;10.88;;;;;;;18.84;72.84;97904.73;1686696;84;21356;-85
2021/06/29 05:04:44;;;;;;;23.57;10.90;;;;;;;19.00;72.82;97904.13;1686792;85;21024;-85
2021/06/29 05:07:10;;;;;;;12.23;10.93;;;;;;;19.13;72.61;97898.32;1687013;85;21165;-81
2021/06/29 05:09:36;;;;;;;15.78;10.55;;;;;;;19.18;72.22;97898.69;1686528;85;20929;-86
2021/06/29 05:12:05;;;;;;;12.47;11.03;;;;;;;19.12;71.80;97900.84;1686755;85;21042;-86
2021/06/29 05:14:31;;;;;;;16.55;11.53;;;;;;;19.15;71.78;97899.38;1686793;84;21456;-86
2021/06/29 05:16:57;;;;;;;14.18;11.40;;;;;;;19.11;71.04;97895.12;1686771;85;20905;-82
2021/06/29 05:19:23;;;;;;;18.73;13.28;;;;;;;19.07;70.45;97894.77;1686678;85;21003;-86
2021/06/29 05:21:49;;;;;;;18.75;11.18;;;;;;;18.92;71.19;97894.83;1686684;84;20976;-86
2021/06/29 05:24:15;;;;;;;12.18;10.88;;;;;;;18.93;71.12;97894.25;1686724;84;21017;-82
2021/06/29 05:26:41;;;;;;;13.83;10.95;;;;;;;18.94;71.75;97896.66;1686792;84;20885;-82
2021/06/29 05:29:07;;;;;;;14.60;11.03;;;;;;;19.01;72.15;97897.49;1686792;85;20953;-86
2021/06/29 05:31:33;;;;;;;14.75;11.38;;;;;;;19.21;72.03;97895.26;1686974;85;21402;-86
2021/06/29 05:33:59;;;;;;;18.50;11.97;;;;;;;19.47;71.96;97894.17;1686766;85;21606;-86
2021/06/29 05:36:25;;;;;;;12.93;10.88;;;;;;;19.63;71.32;97897.33;1686909;85;20869;-87
2021/06/29 05:38:55;;;;;;;16.53;11.73;;;;;;;19.87;70.46;97898.50;1687908;84;20969;-81
2021/06/29 05:41:21;;;;;;;21.03;11.60;;;;;;;19.98;69.53;97895.51;1689249;84;20934;-82
2021/06/29 05:43:48;;;;;;;17.20;12.68;;;;;;;20.00;69.76;97888.54;1688912;83;21125;-83
2021/06/29 05:46:16;;;;;;;16.20;11.88;;;;;;;20.12;69.18;97891.05;1688819;85;21008;-82
2021/06/29 05:48:44;;;;;;;12.87;11.47;;;;;;;20.21;68.16;97893.09;1688796;84;20984;-86
2021/06/29 05:51:10;;;;;;;17.12;11.70;;;;;;;20.27;67.72;97879.34;1689155;85;20961;-86
2021/06/29 05:53:36;;;;;;;15.72;11.15;;;;;;;20.27;68.13;97884.27;1688994;83;21449;-82
2021/06/29 05:56:02;;;;;;;20.57;11.05;;;;;;;20.27;67.67;97875.22;1689178;85;21776;-81
2021/06/29 05:58:28;;;;;;;13.30;11.18;;;;;;;20.21;68.71;97876.02;1689026;85;20921;-86
2021/06/29 06:00:55;;;;;;;14.45;11.43;;;;;;;20.44;68.71;97881.86;1689041;85;20945;-87
2021/06/29 06:03:21;;;;;;;15.70;11.35;;;;;;;20.80;68.52;97871.88;1689287;85;21353;-86
2021/06/29 06:05:47;;;;;;;19.55;12.23;;;;;;;21.09;66.87;97875.64;1689273;85;21055;-82
2021/06/29 06:08:17;;;;;;;17.25;10.70;;;;;;;21.57;66.23;97871.03;1689230;85;21994;-86
2021/06/29 06:10:45;;;;;;;16.60;12.07;;;;;;;21.80;64.30;97868.46;1688817;83;21120;-82
2021/06/29 06:13:11;;;;;;;13.35;11.45;;;;;;;21.77;64.03;97871.91;1689172;85;21012;-81
2021/06/29 06:15:37;;;;;;;14.28;11.53;;;;;;;21.71;64.08;97863.71;1689254;83;21362;-87
2021/06/29 06:18:06;;;;;;;13.80;11.80;;;;;;;21.66;64.13;97869.48;1689353;85;20968;-82
2021/06/29 06:20:37;;;;;;;20.37;12.50;;;;;;;21.65;64.72;97864.55;1688938;84;21079;-86
2021/06/29 06:23:05;;;;;;;13.68;12.15;;;;;;;21.81;64.47;97865.13;1679745;85;20972;-86
2021/06/29 06:25:32;;;;;;;16.77;12.05;;;;;;;21.89;64.56;97864.14;1689586;85;21044;-86
2021/06/29 06:28:01;;;;;;;14.70;11.30;;;;;;;21.83;64.71;97862.80;1689211;85;20981;-82
2021/06/29 06:30:27;;;;;;;12.15;9.93;;;;;;;21.99;65.38;97863.59;1689463;83;21487;-87
2021/06/29 06:32:57;;;;;;;12.57;10.47;;;;;;;22.31;64.44;97857.45;1688902;84;21390;-87
2021/06/29 06:35:26;;;;;;;12.93;10.63;;;;;;;22.58;63.32;97852.11;1689318;83;21000;-87
2021/06/29 06:37:51;;;;;;;16.20;11.78;;;;;;;22.86;62.03;97851.33;1689116;84;21039;-87
2021/06/29 06:40:23;;;;;;;12.33;9.20;;;;;;;23.15;62.34;97849.11;1687435;84;20929;-87
2021/06/29 06:42:49;;;;;;;18.62;10.20;;;;;;;23.47;61.69;97849.69;1688790;83;20906;-87
2021/06/29 06:45:15;;;;;;;12.60;9.63;;;;;;;23.69;59.37;97843.98;1689332;83;21117;-87
2021/06/29 06:47:45;;;;;;;10.98;9.80;;;;;;;23.87;59.59;97836.17;1679353;85;21405;-82
2021/06/29 06:50:19;;;;;;;9.88;8.53;;;;;;;23.91;58.63;97838.40;1642866;84;21373;-87
2021/06/29 06:52:45;;;;;;;14.05;12.40;;;;;;;23.94;58.88;97843.80;1688674;83;21408;-82
2021/06/29 06:55:13;;;;;;;14.55;9.63;;;;;;;24.12;58.74;97839.91;1679511;85;21040;-87
2021/06/29 06:57:41;;;;;;;12.98;10.85;;;;;;;24.37;57.70;97834.17;1689034;85;21106;-82
2021/06/29 07:00:12;;;;;;;13.30;10.03;;;;;;;24.38;56.44;97828.84;1688944;84;20976;-83
2021/06/29 07:02:42;;;;;;;13.32;9.83;;;;;;;24.38;57.87;97820.53;1688858;84;20948;-82
2021/06/29 07:05:11;;;;;;;11.93;9.25;;;;;;;24.72;57.86;97824.72;1689238;83;20969;-87
2021/06/29 07:07:36;;;;;;;12.00;9.78;;;;;;;24.88;56.16;97816.20;1689435;84;20976;-82
2021/06/29 07:10:07;;;;;;;12.50;9.00;;;;;;;24.97;56.10;97817.49;1689310;85;21136;-84
2021/06/29 07:12:36;;;;;;;23.35;9.90;;;;;;;25.08;55.73;97816.83;1687225;83;21024;-88
2021/06/29 07:15:06;;;;;;;10.30;8.73;;;;;;;25.23;55.62;97818.58;1688976;84;21015;-82
2021/06/29 07:17:43;;;;;;;13.98;9.33;;;;;;;25.43;55.67;97810.23;1688257;84;21460;-82
2021/06/29 07:20:32;;;;;;;;;;;;;;;;;;;;;
2021/06/29 07:22:38;;;;;;;12.20;8.08;;;;;;;26.10;55.14;97807.81;1659677;85;20952;-87
2021/06/29 07:25:20;;;;;;;;;;;;;;;;;;;;;
2021/06/29 07:27:54;;;;;;;;;;;;;;;;;;;;;
2021/06/29 07:30:13;;;;;;;8.33;7.25;;;;;;;26.85;52.89;97801.24;1688832;84;21075;-83
2021/06/29 07:32:53;;;;;;;;;;;;;;;;;;;;;
2021/06/29 07:35:16;;;;;;;8.45;7.10;;;;;;;27.20;51.14;97794.41;1687266;84;21405;-82
2021/06/29 07:37:46;;;;;;;10.50;6.37;;;;;;;27.29;50.82;97793.22;1687693;85;20898;-88
2021/06/29 07:40:19;;;;;;;11.80;7.40;;;;;;;27.58;51.44;97788.45;1688595;84;21480;-88
2021/06/29 07:42:57;;;;;;;;;;;;;;;;;;;;;
2021/06/29 07:45:29;;;;;;;;;;;;;;;;;;;;;
2021/06/29 07:47:55;;;;;;;12.58;7.17;;;;;;;28.42;48.32;97780.41;1687287;85;21044;-88
2021/06/29 07:50:35;;;;;;;;;;;;;;;;;;;;;
2021/06/29 07:52:57;;;;;;;7.42;5.65;;;;;;;28.64;47.21;97781.33;1688335;84;21460;-87
2021/06/29 07:55:27;;;;;;;6.22;5.08;;;;;;;28.87;46.89;97777.20;1689152;83;20993;-88
2021/06/29 07:57:53;;;;;;;6.20;5.30;;;;;;;28.89;44.12;97781.23;1689192;83;21012;-83
2021/06/29 08:00:23;;;;;;;6.30;5.70;;;;;;;29.23;45.03;97776.44;1689159;85;21982;-83
2021/06/29 08:02:52;;;;;;;6.60;5.42;;;;;;;29.56;44.77;97768.63;1688694;83;21012;-88
2021/06/29 08:05:25;;;;;;;5.97;5.10;;;;;;;30.10;43.11;97771.14;1688252;85;21404;-88
2021/06/29 08:08:05;;;;;;;8.73;5.50;;;;;;;30.40;43.38;97758.42;1687511;85;21023;-88
2021/06/29 08:10:31;;;;;;;7.08;5.65;;;;;;;30.87;41.59;97769.23;1682198;84;21001;-84
2021/06/29 08:13:01;;;;;;;6.50;5.62;;;;;;;30.95;41.98;97773.52;1687055;84;21381;-89
2021/06/29 08:15:39;;;;;;;5.97;5.37;;;;;;;31.24;43.08;97762.72;1580650;90;21033;-83
2021/06/29 08:18:05;;;;;;;7.50;5.08;;;;;;;31.51;41.24;97770.29;1674561;85;21024;-83
2021/06/29 08:20:31;;;;;;;6.47;5.40;;;;;;;31.59;40.35;97768.95;1689122;85;21476;-84
2021/06/29 08:22:57;;;;;;;6.85;5.25;;;;;;;31.80;40.64;97768.64;1689145;85;20921;-88
2021/06/29 08:25:24;;;;;;;6.45;5.83;;;;;;;32.04;40.65;97777.00;1689131;85;21541;-90
2021/06/29 08:27:57;;;;;;;7.00;6.05;;;;;;;32.31;40.22;97768.53;1688698;83;20980;-88
2021/06/29 08:30:41;;;;;;;;;;;;;;;;;;;;;
2021/06/29 08:33:06;;;;;;;5.70;5.22;;;;;;;33.33;38.43;97761.92;1577966;89;21087;-88
2021/06/29 08:35:26;;;;;;;;;;;;;;;33.16;36.60;97772.92;1578856;91;21106;-84
2021/06/29 08:38:02;;;;;;;;;;;;;;;32.82;35.87;97772.67;1580771;88;21482;-84
2021/06/29 08:40:34;;;;;;;;;;;;;;;;;;;;;
2021/06/29 08:43:05;;;;;;;6.60;4.72;;;;;;;33.74;34.62;97767.53;1575349;91;21145;-88
2021/06/29 08:48:11;;;;;;;6.40;4.70;;;;;;;34.00;34.03;97758.66;1498014;95;20988;-88
2021/06/29 08:50:39;;;;;;;5.28;4.78;;;;;;;33.75;32.78;97761.47;1490529;96;21214;-88
2021/06/29 08:53:13;;;;;;;5.83;4.80;;;;;;;34.35;33.32;97759.70;1495295;95;20993;-84
2021/06/29 08:55:47;;;;;;;6.15;4.92;;;;;;;34.73;31.69;97761.25;1624123;88;20952;-88
2021/06/29 08:58:32;;;;;;;;;;;;;;;;;;;;;
2021/06/29 09:01:01;;;;;;;6.80;5.67;;;;;;;35.49;31.75;97759.13;1585150;88;20956;-85
2021/06/29 09:06:46;;;;;;;;;;;;;;;;;;;;;
2021/06/29 09:09:34;;;;;;;8.20;6.22;;;;;;;36.53;31.10;97744.43;1609692;88;21072;-83
2021/06/29 09:12:24;;;;;;;;;;;;;;;;;;;;;
2021/06/29 09:20:03;;;;;;;5.53;5.03;;;;;;;37.65;30.01;97750.14;1300112;109;21130;-89
2021/06/29 09:22:51;;;;;;;;;;;;;;;;;;;;;
2021/06/29 09:25:47;;;;;;;7.85;5.90;;;;;;;36.05;30.32;97737.30;1234778;114;21272;-84
2021/06/29 09:30:40;;;;;;;5.60;4.75;;;;;;;36.36;31.15;97738.83;1232051;116;21198;-84
2021/06/29 09:58:57;;;;;;;;;;;;;;;;;;;;;
2021/06/29 10:01:02;;;;;;;;;;;;;;;;;;;;;
2021/06/29 10:20:48;;;;;;;;;;;;;;;;;;;;;
2021/06/29 10:23:41;;;;;;;;;;;;;;;;;;;;;
2021/06/29 10:35:45;;;;;;;5.55;4.50;;;;;;;36.96;29.84;97687.77;1719321;80;21358;-84
2021/06/29 10:38:20;;;;;;;4.83;4.25;;;;;;;38.58;27.36;97676.16;1601012;88;20998;-89
2021/06/29 10:40:56;;;;;;;7.00;4.67;;;;;;;37.08;28.30;97682.63;1566178;91;20991;-89
2021/06/29 10:43:48;;;;;;;;;;;;;;;;;;;;;
2021/06/29 10:46:40;;;;;;;;;;;;;;;;;;;;;
2021/06/29 10:52:28;;;;;;;5.00;4.50;;;;;;;38.39;26.97;97672.59;1494213;94;21070;-84
2021/06/29 10:55:22;;;;;;;6.10;4.08;;;;;;;38.53;26.36;97683.23;1495930;94;21088;-89
2021/06/29 10:58:08;;;;;;;;;;;;;;;;;;;;;
2021/06/29 11:00:35;;;;;;;6.83;4.10;;;;;;;38.93;25.38;97684.38;1601776;87;21776;-84
2021/06/29 11:03:13;;;;;;;7.03;3.92;;;;;;;38.08;26.87;97678.41;1562818;91;21231;-88
2021/06/29 11:05:53;;;;;;;;;;;;;;;;;;;;;
2021/06/29 11:08:41;;;;;;;;;;;;;;;;;;;;;
2021/06/29 11:11:25;;;;;;;;;;;;;;;;;;;;;
2021/06/29 11:13:48;;;;;;;6.80;4.40;;;;;;;38.21;26.50;97671.19;1498213;82;21111;-84
2021/06/29 11:16:23;;;;;;;5.97;4.65;;;;;;;37.01;28.28;97675.09;1667679;84;20927;-87
2021/06/29 11:19:01;;;;;;;6.80;5.10;;;;;;;34.93;31.13;97685.87;1645617;87;21469;-88
2021/06/29 11:21:34;;;;;;;6.42;4.42;;;;;;;34.05;32.11;97687.87;1660463;84;21092;-89
2021/06/29 11:24:44;;;;;;;9.05;4.60;;;;;;;31.92;35.86;97696.57;1700598;84;21028;-84
2021/06/29 11:27:06;;;;;;;12.28;5.22;;;;;;;31.47;36.65;97684.98;1679827;84;21022;-88
2021/06/29 11:29:52;;;;;;;8.00;5.25;;;;;;;30.68;38.55;97683.20;1661518;84;20989;-89
2021/06/29 11:32:34;;;;;;;6.12;5.55;;;;;;;30.48;39.54;97670.48;1699388;82;21142;-83
2021/06/29 11:35:48;;;;;;;;;;;;;;;;;;;;;
2021/06/29 11:38:09;;;;;;;6.25;4.70;;;;;;;30.29;40.23;97669.14;1623381;86;20999;-89
2021/06/29 11:40:54;;;;;;;;;;;;;;;;;;;;;
2021/06/29 11:43:25;;;;;;;;;;;;;;;;;;;;;
2021/06/29 11:45:51;;;;;;;6.00;4.58;;;;;;;35.83;31.16;97662.56;1605856;88;21177;-83
2021/06/29 11:48:50;;;;;;;8.38;4.58;;;;;;;36.29;30.36;97654.45;1625098;87;21047;-88
2021/06/29 11:51:52;;;;;;;;;;;;;;;;;;;;;
2021/06/29 11:54:42;;;;;;;;;;;;;;;;;;;;;
2021/06/29 11:57:37;;;;;;;8.33;5.00;;;;;;;35.41;30.87;97644.52;1500449;94;21140;-84
2021/06/29 12:00:30;;;;;;;4.80;4.03;;;;;;;34.27;31.97;97645.86;1506816;95;21088;-89
2021/06/29 12:03:19;;;;;;;;;;;;;;;;;;;;;
2021/06/29 12:05:48;;;;;;;4.75;4.30;;;;;;;32.51;35.61;97662.16;1502621;93;21005;-84
2021/06/29 12:08:36;;;;;;;;;;;;;;;;;;;;;
2021/06/29 12:11:10;;;;;;;;;;;;;;;;;;;;;
2021/06/29 12:13:58;;;;;;;;;;;;;;;;;;;;;
2021/06/29 12:16:41;;;;;;;;;;;;;;;;;;;;;
2021/06/29 12:19:02;;;;;;;6.35;4.92;;;;;;;32.66;36.59;97661.23;1334858;105;21169;-89
2021/06/29 12:24:26;;;;;;;;;;;;;;;;;;;;;
2021/06/29 12:27:01;;;;;;;5.25;4.75;;;;;;;33.95;33.56;97654.63;1427378;99;21175;-84
2021/06/29 12:29:40;;;;;;;;;;;;;;;;;;;;;
2021/06/29 12:32:18;;;;;;;6.12;4.08;;;;;;;35.08;31.35;97643.98;1397311;101;21071;-84
2021/06/29 12:34:52;;;;;;;8.78;5.28;;;;;;;34.77;31.46;97637.49;1383185;103;21055;-89
2021/06/29 12:37:45;;;;;;;;;;;;;;;;;;;;;
2021/06/29 12:40:08;;;;;;;4.60;4.20;;;;;;;35.91;30.25;97627.27;1433909;99;21825;-88
2021/06/29 12:42:44;;;;;;;;;;;;;;;;;;;;;
2021/06/29 12:45:13;;;;;;;4.37;3.87;;;;;;;36.39;29.22;97618.03;1571811;85;21035;-84
2021/06/29 12:47:46;;;;;;;4.55;4.15;;;;;;;37.50;28.32;97610.87;1626403;87;21062;-85
2021/06/29 12:50:14;;;;;;;5.08;4.60;;;;;;;37.36;28.21;97607.27;1630967;86;21033;-87
2021/06/29 12:52:46;;;;;;;4.40;4.00;;;;;;;37.77;27.24;97609.31;1697646;84;20975;-89
2021/06/29 12:55:25;;;;;;;7.12;4.42;;;;;;;37.17;28.36;97616.28;1624749;87;21079;-89
2021/06/29 12:58:11;;;;;;;5.10;4.35;;;;;;;37.76;27.19;97615.57;1581991;86;20947;-84
2021/06/29 13:00:44;;;;;;;6.83;4.25;;;;;;;38.19;27.02;97606.59;1670105;85;20963;-89
2021/06/29 13:06:24;;;;;;;4.70;3.77;;;;;;;38.09;27.71;97593.73;1570896;91;20992;-83
2021/06/29 13:11:39;;;;;;;12.63;4.70;;;;;;;36.21;28.62;97584.84;1346423;106;21159;-86
2021/06/29 13:14:04;;;;;;;4.40;4.00;;;;;;;36.67;28.14;97581.65;1367306;102;21013;-88
2021/06/29 13:16:34;;;;;;;7.72;3.70;;;;;;;36.56;28.73;97581.90;1431331;95;21163;-86
2021/06/29 13:19:00;;;;;;;7.00;4.15;;;;;;;35.40;30.25;97580.20;1537074;92;21240;-84
2021/06/29 13:21:36;;;;;;;4.35;3.95;;;;;;;33.70;32.73;97563.20;1566852;91;21039;-88
2021/06/29 13:24:11;;;;;;;5.17;4.42;;;;;;;31.97;37.00;97569.23;1582967;90;21043;-83
2021/06/29 13:26:56;;;;;;;8.18;5.33;;;;;;;31.28;38.88;97562.59;1659520;86;20954;-88
2021/06/29 13:29:28;;;;;;;5.70;5.08;;;;;;;30.48;39.76;97562.27;1617608;88;21527;-87
2021/06/29 13:31:58;;;;;;;8.78;5.00;;;;;;;30.48;39.76;97562.27;1578568;90;21333;-88
2021/06/29 13:34:34;;;;;;;9.53;5.75;;;;;;;30.10;40.27;97563.03;1598854;88;20956;-88
2021/06/29 13:37:25;;;;;;;7.78;4.90;;;;;;;29.87;42.21;97550.34;1685641;82;20967;-83
2021/06/29 13:39:54;;;;;;;15.78;6.42;;;;;;;29.53;42.49;97552.55;1722132;83;21386;-88
2021/06/29 13:42:27;;;;;;;9.68;5.78;;;;;;;29.53;43.04;97546.18;1707533;83;20917;-83
2021/06/29 13:45:04;;;;;;;6.50;5.40;;;;;;;29.55;42.13;97544.55;1722128;82;21106;-82